Map

Track Data

SID SEASON NUMBER BASIN SUBBASIN NAME ISO_TIME NATURE LAT LON WMO_WIND WMO_PRES WMO_AGENCY TRACK_TYPE DIST2LAND LANDFALL IFLAG USA_AGENCY USA_ATCF_ID USA_LAT USA_LON USA_RECORD USA_STATUS USA_WIND USA_PRES USA_SSHS USA_R34_NE USA_R34_SE USA_R34_SW USA_R34_NW USA_R50_NE USA_R50_SE USA_R50_SW USA_R50_NW USA_R64_NE USA_R64_SE USA_R64_SW USA_R64_NW USA_POCI USA_ROCI USA_RMW USA_EYE TOKYO_LAT TOKYO_LON TOKYO_GRADE TOKYO_WIND TOKYO_PRES TOKYO_R50_DIR TOKYO_R50_LONG TOKYO_R50_SHORT TOKYO_R30_DIR TOKYO_R30_LONG TOKYO_R30_SHORT TOKYO_LAND CMA_LAT CMA_LON CMA_CAT CMA_WIND CMA_PRES HKO_LAT HKO_LON HKO_CAT HKO_WIND HKO_PRES NEWDELHI_LAT NEWDELHI_LON NEWDELHI_GRADE NEWDELHI_WIND NEWDELHI_PRES NEWDELHI_CI NEWDELHI_DP NEWDELHI_POCI REUNION_LAT REUNION_LON REUNION_TYPE REUNION_WIND REUNION_PRES REUNION_TNUM REUNION_CI REUNION_RMW REUNION_R34_NE REUNION_R34_SE REUNION_R34_SW REUNION_R34_NW REUNION_R50_NE REUNION_R50_SE REUNION_R50_SW REUNION_R50_NW REUNION_R64_NE REUNION_R64_SE REUNION_R64_SW REUNION_R64_NW BOM_LAT BOM_LON BOM_TYPE BOM_WIND BOM_PRES BOM_TNUM BOM_CI BOM_RMW BOM_R34_NE BOM_R34_SE BOM_R34_SW BOM_R34_NW BOM_R50_NE BOM_R50_SE BOM_R50_SW BOM_R50_NW BOM_R64_NE BOM_R64_SE BOM_R64_SW BOM_R64_NW BOM_ROCI BOM_POCI BOM_EYE BOM_POS_METHOD BOM_PRES_METHOD NADI_LAT NADI_LON NADI_CAT NADI_WIND NADI_PRES WELLINGTON_LAT WELLINGTON_LON WELLINGTON_WIND WELLINGTON_PRES DS824_LAT DS824_LON DS824_STAGE DS824_WIND DS824_PRES TD9636_LAT TD9636_LON TD9636_STAGE TD9636_WIND TD9636_PRES TD9635_LAT TD9635_LON TD9635_WIND TD9635_PRES TD9635_ROCI NEUMANN_LAT NEUMANN_LON NEUMANN_CLASS NEUMANN_WIND NEUMANN_PRES MLC_LAT MLC_LON MLC_CLASS MLC_WIND MLC_PRES USA_GUST BOM_GUST BOM_GUST_PER REUNION_GUST REUNION_GUST_PER USA_SEAHGT USA_SEARAD_NE USA_SEARAD_SE USA_SEARAD_SW USA_SEARAD_NW STORM_SPEED STORM_DIR
1853318N20288 1853 19 NA NA NOT_NAMED 1853-11-13 12:00:00 TS 20.5000 -72.0000 main 81 81 _____________O -1 20.5000 -72.0000 TS 35 1 0
1853318N20288 1853 19 NA NA NOT_NAMED 1853-11-13 15:00:00 TS 20.5625 -72.0125 main 91 91 _____________P -1 20.5625 -72.0125 TS 35 1 0
1853318N20288 1853 19 NA NA NOT_NAMED 1853-11-13 18:00:00 TS 20.6000 -72.0000 main 91 91 _____________O -1 20.6000 -72.0000 TS 35 1 57
1853318N20288 1853 19 NA NA NOT_NAMED 1853-11-13 21:00:00 TS 20.6000 -71.9500 main 90 90 _____________P -1 20.6000 -71.9500 TS 35 1 90
1853318N20288 1853 19 NA NA NOT_NAMED 1853-11-14 00:00:00 TS 20.6000 -71.9000 main 90 90 _____________O -1 20.6000 -71.9000 TS 35 1 43
1853318N20288 1853 19 NA NA NOT_NAMED 1853-11-14 03:00:00 TS 20.6500 -71.9000 main 101 90 _____________P -1 20.6500 -71.9000 TS 35 1 0
1853318N20288 1853 19 NA NA NOT_NAMED 1853-11-14 06:00:00 TS 20.7000 -71.9000 main 101 101 _____________O -1 20.7000 -71.9000 TS 35 1 43
1853318N20288 1853 19 NA NA NOT_NAMED 1853-11-14 09:00:00 TS 20.7000 -71.8500 main 100 100 _____________P -1 20.7000 -71.8500 TS 37 1 90
1853318N20288 1853 19 NA NA NOT_NAMED 1853-11-14 12:00:00 TS 20.7000 -71.8000 main 100 100 _____________O -1 20.7000 -71.8000 TS 40 1 43
1853318N20288 1853 19 NA NA NOT_NAMED 1853-11-14 15:00:00 TS 20.7500 -71.8000 main 100 100 _____________P -1 20.7500 -71.8000 TS 40 1 0
1853318N20288 1853 19 NA NA NOT_NAMED 1853-11-14 18:00:00 TS 20.8000 -71.8000 main 111 111 _____________O -1 20.8000 -71.8000 TS 40 1 43
1853318N20288 1853 19 NA NA NOT_NAMED 1853-11-14 21:00:00 TS 20.8000 -71.7500 main 111 111 _____________P -1 20.8000 -71.7500 TS 40 1 90
1853318N20288 1853 19 NA NA NOT_NAMED 1853-11-15 00:00:00 TS 20.8000 -71.7000 main 111 111 _____________O -1 20.8000 -71.7000 TS 40 1 43
1853318N20288 1853 19 NA NA NOT_NAMED 1853-11-15 03:00:00 TS 20.8500 -71.7000 main 111 111 _____________P -1 20.8500 -71.7000 TS 40 1 0
1853318N20288 1853 19 NA NA NOT_NAMED 1853-11-15 06:00:00 TS 20.9000 -71.7000 main 123 123 _____________O -1 20.9000 -71.7000 TS 40 1 43
1853318N20288 1853 19 NA NA NOT_NAMED 1853-11-15 09:00:00 TS 20.9000 -71.6650 main 123 123 _____________P -1 20.9000 -71.6650 TS 42 1 90
1853318N20288 1853 19 NA NA NOT_NAMED 1853-11-15 12:00:00 TS 20.9000 -71.6000 main 123 123 _____________O -1 20.9000 -71.6000 TS 45 1 76
1853318N20288 1853 19 NA NA NOT_NAMED 1853-11-15 15:00:00 TS 20.9350 -71.5150 main 123 123 _____________P -1 20.9350 -71.5150 TS 45 2 61
1853318N20288 1853 19 NA NA NOT_NAMED 1853-11-15 18:00:00 TS 21.0000 -71.4000 main 134 134 _____________O -1 21.0000 -71.4000 TS 45 3 57
1853318N20288 1853 19 NA NA NOT_NAMED 1853-11-15 21:00:00 TS 21.0925 -71.2575 main 145 145 _____________P -1 21.0925 -71.2575 TS 45 3 55
1853318N20288 1853 19 NA NA NOT_NAMED 1853-11-16 00:00:00 TS 21.2000 -71.1000 main 156 156 _____________O -1 21.2000 -71.1000 TS 45 4 53
1853318N20288 1853 19 NA NA NOT_NAMED 1853-11-16 03:00:00 TS 21.3075 -70.9500 main 167 167 _____________P -1 21.3075 -70.9500 TS 45 3 55
1853318N20288 1853 19 NA NA NOT_NAMED 1853-11-16 06:00:00 TS 21.4000 -70.8000 main 178 178 _____________O -1 21.4000 -70.8000 TS 45 3 62
1853318N20288 1853 19 NA NA NOT_NAMED 1853-11-16 09:00:00 TS 21.4575 -70.6425 main 190 190 _____________P -1 21.4575 -70.6425 TS 45 3 70
1853318N20288 1853 19 NA NA NOT_NAMED 1853-11-16 12:00:00 TS 21.5000 -70.5000 main 190 190 _____________O -1 21.5000 -70.5000 TS 45 3 68
1853318N20288 1853 19 NA NA NOT_NAMED 1853-11-16 15:00:00 TS 21.5500 -70.3925 main 191 191 _____________P -1 21.5500 -70.3925 TS 45 2 61
1853318N20288 1853 19 NA NA NOT_NAMED 1853-11-16 18:00:00 TS 21.6000 -70.3000 main 203 203 _____________O -1 21.6000 -70.3000 TS 45 2 63
1853318N20288 1853 19 NA NA NOT_NAMED 1853-11-16 21:00:00 TS 21.6425 -70.1925 main 205 205 _____________P -1 21.6425 -70.1925 TS 45 2 61
1853318N20288 1853 19 NA NA NOT_NAMED 1853-11-17 00:00:00 TS 21.7000 -70.1000 main 218 218 _____________O -1 21.7000 -70.1000 TS 45 2 40
1853318N20288 1853 19 NA NA NOT_NAMED 1853-11-17 03:00:00 TS 21.8000 -70.0500 main 232 232 _____________P -1 21.8000 -70.0500 TS 45 2 27
1853318N20288 1853 19 NA NA NOT_NAMED 1853-11-17 06:00:00 TS 21.9000 -70.0000 main 242 242 _____________O -1 21.9000 -70.0000 TS 45 2 48
1853318N20288 1853 19 NA NA NOT_NAMED 1853-11-17 09:00:00 TS 21.9425 -69.8775 main 245 245 _____________P -1 21.9425 -69.8775 TS 47 2 61
1853318N20288 1853 19 NA NA NOT_NAMED 1853-11-17 12:00:00 TS 22.0000 -69.8000 main 259 259 _____________O -1 22.0000 -69.8000 TS 50 2 7
1853318N20288 1853 19 NA NA NOT_NAMED 1853-11-17 15:00:00 TS 22.1350 -69.8699 main 267 267 _____________P -1 22.1350 -69.8699 TS 50 4 329
1853318N20288 1853 19 NA NA NOT_NAMED 1853-11-17 18:00:00 TS 22.3000 -70.0000 main 286 286 _____________O -1 22.3000 -70.0000 TS 50 4 326
1853318N20288 1853 19 NA NA NOT_NAMED 1853-11-17 21:00:00 TS 22.4500 -70.1000 main 306 295 _____________P -1 22.4500 -70.1000 TS 50 4 329
1853318N20288 1853 19 NA NA NOT_NAMED 1853-11-18 00:00:00 TS 22.6000 -70.2000 main 315 315 _____________O -1 22.6000 -70.2000 TS 50 4 328
1853318N20288 1853 19 NA NA NOT_NAMED 1853-11-18 03:00:00 TS 22.7500 -70.3075 main 330 322 _____________P -1 22.7500 -70.3075 TS 50 4 329
1853318N20288 1853 19 NA NA NOT_NAMED 1853-11-18 06:00:00 TS 22.9000 -70.4000 main 328 328 _____________O -1 22.9000 -70.4000 TS 50 3 337
1853318N20288 1853 19 NA NA NOT_NAMED 1853-11-18 09:00:00 TS 23.0575 -70.4501 main 333 333 _____________P -1 23.0575 -70.4501 TS 52 3 344
1853318N20288 1853 19 NA NA NOT_NAMED 1853-11-18 12:00:00 TS 23.2000 -70.5000 main 340 340 _____________O -1 23.2000 -70.5000 TS 55 3 333
1853318N20288 1853 19 NA NA NOT_NAMED 1853-11-18 15:00:00 TS 23.3075 -70.5850 main 340 340 _____________P -1 23.3075 -70.5850 TS 55 3 317
1853318N20288 1853 19 NA NA NOT_NAMED 1853-11-18 18:00:00 TS 23.4000 -70.7000 main 341 334 _____________O -1 23.4000 -70.7000 TS 55 3 309
1853318N20288 1853 19 NA NA NOT_NAMED 1853-11-18 21:00:00 TS 23.5000 -70.8425 main 342 335 _____________P -1 23.5000 -70.8425 TS 55 3 306
1853318N20288 1853 19 NA NA NOT_NAMED 1853-11-19 00:00:00 TS 23.6000 -71.0000 main 337 331 _____________O -1 23.6000 -71.0000 TS 55 4 305
1853318N20288 1853 19 NA NA NOT_NAMED 1853-11-19 03:00:00 TS 23.7000 -71.1575 main 335 335 _____________P -1 23.7000 -71.1575 TS 55 3 306
1853318N20288 1853 19 NA NA NOT_NAMED 1853-11-19 06:00:00 TS 23.8000 -71.3000 main 339 339 _____________O -1 23.8000 -71.3000 TS 55 3 314
1853318N20288 1853 19 NA NA NOT_NAMED 1853-11-19 09:00:00 TS 23.9074 -71.3925 main 343 343 _____________P -1 23.9074 -71.3925 TS 57 3 318
1853318N20288 1853 19 NA NA NOT_NAMED 1853-11-19 12:00:00 TS 24.0000 -71.5000 main 348 340 _____________O -1 24.0000 -71.5000 TS 60 3 299
1853318N20288 1853 19 NA NA NOT_NAMED 1853-11-19 15:00:00 TS 24.0575 -71.6925 main 350 343 _____________P -1 24.0575 -71.6925 TS 60 4 285
1853318N20288 1853 19 NA NA NOT_NAMED 1853-11-19 18:00:00 TS 24.1000 -71.9000 main 343 340 _____________O -1 24.1000 -71.9000 TS 60 3 287
1853318N20288 1853 19 NA NA NOT_NAMED 1853-11-19 21:00:00 TS 24.1575 -72.0575 main 347 345 _____________P -1 24.1575 -72.0575 TS 60 3 290
1853318N20288 1853 19 NA NA NOT_NAMED 1853-11-20 00:00:00 TS 24.2000 -72.2000 main 345 342 _____________O -1 24.2000 -72.2000 TS 60 3 279
1853318N20288 1853 19 NA NA NOT_NAMED 1853-11-20 03:00:00 TS 24.2000 -72.3501 main 340 339 _____________P -1 24.2000 -72.3501 TS 60 3 270
1853318N20288 1853 19 NA NA NOT_NAMED 1853-11-20 06:00:00 TS 24.2000 -72.5000 main 339 337 _____________O -1 24.2000 -72.5000 TS 60 3 279
1853318N20288 1853 19 NA NA NOT_NAMED 1853-11-20 09:00:00 TS 24.2425 -72.6425 main 337 336 _____________P -1 24.2425 -72.6425 TS 60 3 290
1853318N20288 1853 19 NA NA NOT_NAMED 1853-11-20 12:00:00 TS 24.3000 -72.8000 main 347 346 _____________O -1 24.3000 -72.8000 TS 60 3 289
1853318N20288 1853 19 NA NA NOT_NAMED 1853-11-20 15:00:00 TS 24.3500 -72.9925 main 357 346 _____________P -1 24.3500 -72.9925 TS 65 4 285
1853318N20288 1853 19 NA NA NOT_NAMED 1853-11-20 18:00:00 TS 24.4000 -73.2000 main 357 357 _____________O -1 24.4000 -73.2000 HU 70 4 285
1853318N20288 1853 19 NA NA NOT_NAMED 1853-11-20 21:00:00 TS 24.4500 -73.4000 main 358 358 _____________P -1 24.4500 -73.4000 HU 72 4 285
1853318N20288 1853 19 NA NA NOT_NAMED 1853-11-21 00:00:00 TS 24.5000 -73.6000 main 371 371 _____________O -1 24.5000 -73.6000 HU 75 4 286
1853318N20288 1853 19 NA NA NOT_NAMED 1853-11-21 03:00:00 TS 24.5499 -73.7925 main 373 373 _____________P -1 24.5499 -73.7925 HU 77 4 285
1853318N20288 1853 19 NA NA NOT_NAMED 1853-11-21 06:00:00 TS 24.6000 -74.0000 main 374 344 _____________O -1 24.6000 -74.0000 HU 80 5 283
1853318N20288 1853 19 NA NA NOT_NAMED 1853-11-21 09:00:00 TS 24.6576 -74.2949 main 344 324 _____________P -1 24.6576 -74.2949 HU 82 5 282
1853318N20288 1853 19 NA NA NOT_NAMED 1853-11-21 12:00:00 TS 24.7000 -74.5000 main 324 324 _____________O -1 24.7000 -74.5000 HU 85 2 292
1853318N20288 1853 19 NA NA NOT_NAMED 1853-11-21 15:00:00 TS 24.7150 -74.4526 main 324 324 _____________P -1 24.7150 -74.4526 HU 87 2 90
1853318N20288 1853 19 NA NA NOT_NAMED 1853-11-21 18:00:00 TS 24.7000 -74.3000 main 344 344 _____________O -1 24.7000 -74.3000 HU 90 2 105
1853318N20288 1853 19 NA NA NOT_NAMED 1853-11-21 21:00:00 TS 24.6500 -74.1925 main 354 353 _____________P -1 24.6500 -74.1925 HU 92 2 119
1853318N20288 1853 19 NA NA NOT_NAMED 1853-11-22 00:00:00 TS 24.6000 -74.1000 main 364 364 _____________O -1 24.6000 -74.1000 HU 95 1 111
1853318N20288 1853 19 NA NA NOT_NAMED 1853-11-22 03:00:00 TS 24.6000 -74.0500 main 364 364 _____________P -1 24.6000 -74.0500 HU 95 1 90
1853318N20288 1853 19 NA NA NOT_NAMED 1853-11-22 06:00:00 TS 24.6000 -74.0000 main 374 374 _____________O -1 24.6000 -74.0000 HU 95 2 104
1853318N20288 1853 19 NA NA NOT_NAMED 1853-11-22 09:00:00 TS 24.5575 -73.8624 main 384 373 _____________P -1 24.5575 -73.8624 HU 95 2 119
1853318N20288 1853 19 NA NA NOT_NAMED 1853-11-22 12:00:00 TS 24.5000 -73.8000 main 373 373 _____________O -1 24.5000 -73.8000 HU 95 1 215
1853318N20288 1853 19 NA NA NOT_NAMED 1853-11-22 15:00:00 TS 24.4500 -73.9475 main 375 354 _____________P -1 24.4500 -73.9475 HU 95 4 255
1853318N20288 1853 19 NA NA NOT_NAMED 1853-11-22 18:00:00 TS 24.4000 -74.2000 main 354 334 _____________O -1 24.4000 -74.2000 HU 95 5 258
1853318N20288 1853 19 NA NA NOT_NAMED 1853-11-22 21:00:00 TS 24.3500 -74.4500 main 334 304 _____________P -1 24.3500 -74.4500 HU 95 5 258
1853318N20288 1853 19 NA NA NOT_NAMED 1853-11-23 00:00:00 TS 24.3000 -74.7000 main 304 284 _____________O -1 24.3000 -74.7000 HU 95 4 257
1853318N20288 1853 19 NA NA NOT_NAMED 1853-11-23 03:00:00 TS 24.2574 -74.9074 main 284 265 _____________P -1 24.2574 -74.9074 HU 95 4 255
1853318N20288 1853 19 NA NA NOT_NAMED 1853-11-23 06:00:00 TS 24.2000 -75.1000 main 265 237 _____________O -1 24.2000 -75.1000 HU 95 5 250
1853318N20288 1853 19 NA NA NOT_NAMED 1853-11-23 09:00:00 TS 24.0924 -75.4051 main 237 227 _____________P -1 24.0924 -75.4051 HU 95 4 241
1853318N20288 1853 19 NA NA NOT_NAMED 1853-11-23 12:00:00 TS 24.0000 -75.5000 main 229 229 _____________O -1 24.0000 -75.5000 HU 95 965 3 111
1853318N20288 1853 19 NA NA NOT_NAMED 1853-11-23 15:00:00 TS 23.9853 -75.1050 main 269 269 _____________P -1 23.9853 -75.1050 HU 95 9 90
1853318N20288 1853 19 NA NA NOT_NAMED 1853-11-23 18:00:00 TS 24.0000 -74.5000 main 329 323 _____________O -1 24.0000 -74.5000 HU 95 10 89
1853318N20288 1853 19 NA NA NOT_NAMED 1853-11-23 21:00:00 TS 23.9998 -74.0000 main 323 314 _____________P -1 23.9998 -74.0000 HU 95 9 90
1853318N20288 1853 19 NA NA NOT_NAMED 1853-11-24 00:00:00 TS 24.0000 -73.5000 main 314 313 _____________O -1 24.0000 -73.5000 HU 95 9 90
1853318N20288 1853 19 NA NA NOT_NAMED 1853-11-24 03:00:00 TS 23.9998 -73.0000 main 313 313 _____________P -1 23.9998 -73.0000 HU 95 9 90
1853318N20288 1853 19 NA NA NOT_NAMED 1853-11-24 06:00:00 TS 24.0000 -72.5000 main 317 317 _____________O -1 24.0000 -72.5000 HU 95 9 92
1853318N20288 1853 19 NA NA NOT_NAMED 1853-11-24 09:00:00 TS 23.9623 -71.9996 main 329 329 _____________P -1 23.9623 -71.9996 HU 95 9 90
1853318N20288 1853 19 NA NA NOT_NAMED 1853-11-24 12:00:00 TS 24.0000 -71.5000 main 348 348 _____________O -1 24.0000 -71.5000 HU 95 9 74
1853318N20288 1853 19 NA NA NOT_NAMED 1853-11-24 15:00:00 TS 24.2198 -71.0003 main 393 393 _____________P -1 24.2198 -71.0003 HU 92 10 61
1853318N20288 1853 19 NA NA NOT_NAMED 1853-11-24 18:00:00 TS 24.5000 -70.5000 main 449 449 _____________O -1 24.5000 -70.5000 HU 90 10 62
1853318N20288 1853 19 NA NA NOT_NAMED 1853-11-24 21:00:00 TS 24.7073 -69.9998 main 497 497 _____________P -1 24.7073 -69.9998 HU 90 10 66
1853318N20288 1853 19 NA NA NOT_NAMED 1853-11-25 00:00:00 TS 24.9000 -69.5000 main 546 546 _____________O -1 24.9000 -69.5000 HU 90 10 67
1853318N20288 1853 19 NA NA NOT_NAMED 1853-11-25 03:00:00 TS 25.0923 -68.9997 main 597 597 _____________P -1 25.0923 -68.9997 HU 87 10 66
1853318N20288 1853 19 NA NA NOT_NAMED 1853-11-25 06:00:00 TS 25.3000 -68.5000 main 648 648 _____________O -1 25.3000 -68.5000 HU 85 10 62
1853318N20288 1853 19 NA NA NOT_NAMED 1853-11-25 09:00:00 TS 25.5723 -68.0003 main 700 700 _____________P -1 25.5723 -68.0003 HU 85 10 61
1853318N20288 1853 19 NA NA NOT_NAMED 1853-11-25 12:00:00 TS 25.8000 -67.5000 main 738 738 _____________O -1 25.8000 -67.5000 HU 85 10 71
1853318N20288 1853 19 NA NA NOT_NAMED 1853-11-25 15:00:00 TS 25.8799 -66.9921 main 768 768 _____________P -1 25.8799 -66.9921 HU 82 9 84
1853318N20288 1853 19 NA NA NOT_NAMED 1853-11-25 18:00:00 TS 25.9000 -66.5000 main 790 790 _____________O -1 25.9000 -66.5000 HU 80 9 85
1853318N20288 1853 19 NA NA NOT_NAMED 1853-11-25 21:00:00 TS 25.9498 -66.0424 main 811 811 _____________P -1 25.9498 -66.0424 HU 80 8 83
1853318N20288 1853 19 NA NA NOT_NAMED 1853-11-26 00:00:00 TS 26.0000 -65.6000 main 839 839 _____________O -1 26.0000 -65.6000 HU 80 8 83
1853318N20288 1853 19 NA NA NOT_NAMED 1853-11-26 03:00:00 TS 26.0499 -65.1500 main 851 851 _____________P -1 26.0499 -65.1500 HU 77 8 83
1853318N20288 1853 19 NA NA NOT_NAMED 1853-11-26 06:00:00 TS 26.1000 -64.7000 main 865 865 _____________O -1 26.1000 -64.7000 HU 75 8 83
1853318N20288 1853 19 NA NA NOT_NAMED 1853-11-26 09:00:00 TS 26.1499 -64.2425 main 872 872 _____________P -1 26.1499 -64.2425 HU 75 8 83
1853318N20288 1853 19 NA NA NOT_NAMED 1853-11-26 12:00:00 TS 26.2000 -63.8000 main 891 891 _____________O -1 26.2000 -63.8000 HU 75 8 83
1853318N20288 1853 19 NA NA NOT_NAMED 1853-11-26 15:00:00 TS 26.2423 -63.3924 main 900 900 _____________P -1 26.2423 -63.3924 HU 72 7 82
1853318N20288 1853 19 NA NA NOT_NAMED 1853-11-26 18:00:00 TS 26.3000 -63.0000 main 922 922 _____________O -1 26.3000 -63.0000 HU 70 7 77
1853318N20288 1853 19 NA NA NOT_NAMED 1853-11-26 21:00:00 TS 26.3999 -62.6001 main 945 945 _____________P -1 26.3999 -62.6001 HU 70 7 74
1853318N20288 1853 19 NA NA NOT_NAMED 1853-11-27 00:00:00 TS 26.5000 -62.2000 main 970 970 _____________O -1 26.5000 -62.2000 HU 70 7 78
1853318N20288 1853 19 NA NA NOT_NAMED 1853-11-27 03:00:00 TS 26.5499 -61.7998 main 985 985 _____________P -1 26.5499 -61.7998 HU 67 7 82
1853318N20288 1853 19 NA NA NOT_NAMED 1853-11-27 06:00:00 TS 26.6000 -61.4000 main 1012 1012 _____________O -1 26.6000 -61.4000 HU 65 7 79
1853318N20288 1853 19 NA NA NOT_NAMED 1853-11-27 09:00:00 TS 26.6923 -61.0150 main 1040 1040 _____________P -1 26.6923 -61.0150 HU 65 7 74
1853318N20288 1853 19 NA NA NOT_NAMED 1853-11-27 12:00:00 TS 26.8000 -60.6000 main 1069 1069 _____________O -1 26.8000 -60.6000 HU 65 8 75
1853318N20288 1853 19 NA NA NOT_NAMED 1853-11-27 15:00:00 TS 26.9075 -60.1150 main 1104 1104 _____________P -1 26.9075 -60.1150 HU 65 9 77
1853318N20288 1853 19 NA NA NOT_NAMED 1853-11-27 18:00:00 TS 27.0000 -59.6000 main 1140 1140 _____________O -1 27.0000 -59.6000 HU 65 9 81
1853318N20288 1853 19 NA NA NOT_NAMED 1853-11-27 21:00:00 TS 27.0498 -59.0998 main 1169 1169 _____________P -1 27.0498 -59.0998 HU 60 9 84
1853318N20288 1853 19 NA NA NOT_NAMED 1853-11-28 00:00:00 TS 27.1000 -58.6000 main 1207 1207 _____________O -1 27.1000 -58.6000 TS 55 9 81
1853318N20288 1853 19 NA NA NOT_NAMED 1853-11-28 03:00:00 TS 27.1923 -58.1000 main 1247 1247 _____________P -1 27.1923 -58.1000 TS 50 9 77
1853318N20288 1853 19 NA NA NOT_NAMED 1853-11-28 06:00:00 TS 27.3000 -57.6000 main 1287 1287 _____________O -1 27.3000 -57.6000 TS 45 9 77
1853318N20288 1853 19 NA NA NOT_NAMED 1853-11-28 09:00:00 TS 27.3998 -57.0999 main 1329 1329 _____________P -1 27.3998 -57.0999 TS 40 9 77
1853318N20288 1853 19 NA NA NOT_NAMED 1853-11-28 12:00:00 ET 27.5000 -56.6000 main 1371 1371 _____________O -1 27.5000 -56.6000 EX 35 9 77
1853318N20288 1853 19 NA NA NOT_NAMED 1853-11-28 15:00:00 ET 27.6004 -56.1002 main 1413 1413 _____________P -1 27.6004 -56.1002 EX 32 9 77
1853318N20288 1853 19 NA NA NOT_NAMED 1853-11-28 18:00:00 ET 27.7000 -55.6000 main 1456 _____________O -1 27.7000 -55.6000 EX 30 9 77

About IBTrACS Database

This database is a web-friendly format of International Best Track Archive for Climate Stewardship (IBTrACS), a global best track data archive curated by NOAA dating back to 1842.

Updated: 2021-10-21